Time;durP1;ratioP1;P1;durP2;ratioP2;P2;SDS_P1;SDS_P2;PMS_P1;PMS_P2;Temp;Humidity;BMP_temperature;BMP_pressure;BME280_temperature;BME280_humidity;BME280_pressure;Samples;Min_cycle;Max_cycle;Signal;HPM_P1;HPM_P2
2022/12/29 00:00:01;;;;;;;;;;;;;;;18.21;45.74;99944.84;5147802;27;19923;-56
2022/12/29 00:02:26;;;;;;;;;;;;;;;18.22;45.90;99951.19;5149760;27;19927;-56
2022/12/29 00:04:52;;;;;;;;;;;;;;;18.22;45.92;99937.41;5130992;27;19927;-56
2022/12/29 00:07:18;;;;;;;;;;;;;;;18.22;45.87;99923.63;5139396;27;19923;-56
2022/12/29 00:09:43;;;;;;;;;;;;;;;18.20;45.76;99929.44;5151978;27;20427;-55
2022/12/29 00:12:09;;;;;;;;;;;;;;;18.21;45.78;99914.53;5151434;27;19923;-56
2022/12/29 00:17:20;;;;;;;;;;;;;;;18.21;45.87;99905.47;5150467;27;20302;-56
2022/12/29 00:36:28;;;;;;;;;;;;;;;18.20;45.97;99896.38;5115405;28;20021;-56
2022/12/29 00:44:28;;;;;;;;;;;;;;;18.21;45.80;99878.72;5114541;28;19965;-56
2022/12/29 00:46:54;;;;;;;;;;;;;;;18.22;45.88;99891.41;5130483;28;19927;-56
2022/12/29 00:49:35;;;;;;;;;;;;;;;18.21;46.00;99875.16;5130527;28;20193;-56
2022/12/29 00:52:02;;;;;;;;;;;;;;;18.20;45.91;99866.06;5130756;28;19924;-56
2022/12/29 00:54:28;;;;;;;;;;;;;;;18.21;45.83;99864.94;5130031;27;20314;-56
2022/12/29 00:56:54;;;;;;;;;;;;;;;18.21;45.82;99875.16;5130731;28;19957;-56
2022/12/29 00:59:20;;;;;;;;;;;;;;;18.21;45.84;99867.69;5145040;27;19971;-56
2022/12/29 01:01:46;;;;;;;;;;;;;;;18.21;45.83;99861.38;5151079;27;19931;-56
2022/12/29 01:04:11;;;;;;;;;;;;;;;18.21;45.99;99877.91;5117313;28;19927;-56
2022/12/29 01:06:38;;;;;;;;;;;;;;;18.22;45.94;99860.25;5112110;28;19934;-56
2022/12/29 01:11:49;;;;;;;;;;;;;;;18.22;45.93;99871.28;5100598;28;19930;-56
2022/12/29 01:14:14;;;;;;;;;;;;;;;18.21;45.70;99870.44;5118603;28;19928;-56
2022/12/29 01:16:40;;;;;;;;;;;;;;;18.22;46.01;99871.28;5153616;27;20335;-56
2022/12/29 01:19:06;;;;;;;;;;;;;;;18.22;46.08;99863.00;5171916;27;20011;-56
2022/12/29 01:21:32;;;;;;;;;;;;;;;18.22;45.95;99879.53;5158749;27;20045;-56
2022/12/29 01:23:58;;;;;;;;;;;;;;;18.22;45.81;99876.78;5125274;27;19979;-55
2022/12/29 01:26:24;;;;;;;;;;;;;;;18.21;46.04;99867.69;5129918;28;19927;-56
2022/12/29 01:28:50;;;;;;;;;;;;;;;18.20;45.80;99868.81;5140186;27;19934;-56
2022/12/29 01:31:15;;;;;;;;;;;;;;;18.21;45.85;99866.88;5150766;27;19923;-56
2022/12/29 01:33:41;;;;;;;;;;;;;;;18.22;45.85;99871.28;5139583;27;19934;-56
2022/12/29 01:36:09;;;;;;;;;;;;;;;18.22;45.83;99869.34;5129779;28;19927;-56
2022/12/29 01:38:35;;;;;;;;;;;;;;;18.21;45.89;99875.97;5111754;28;20240;-56
2022/12/29 01:41:00;;;;;;;;;;;;;;;18.22;45.92;99874.03;5111651;28;19939;-56
2022/12/29 01:43:43;;;;;;;;;;;;;;;18.21;45.85;99864.13;5129758;27;19923;-56
2022/12/29 01:46:14;;;;;;;;;;;;;;;18.21;46.01;99864.13;5111609;28;19923;-56
2022/12/29 01:48:40;;;;;;;;;;;;;;;18.21;46.11;99858.63;5111235;28;19924;-56
2022/12/29 01:51:05;;;;;;;;;;;;;;;18.20;45.88;99848.72;5132520;28;19930;-56
2022/12/29 01:53:31;;;;;;;;;;;;;;;18.21;46.15;99840.13;5132836;27;20431;-56
2022/12/29 01:55:58;;;;;;;;;;;;;;;18.21;45.93;99840.13;5133156;28;19924;-56
2022/12/29 01:58:24;;;;;;;;;;;;;;;18.22;45.86;99840.94;5121551;27;19983;-56
2022/12/29 02:00:50;;;;;;;;;;;;;;;18.21;46.00;99840.13;5135201;27;19923;-56
2022/12/29 02:03:16;;;;;;;;;;;;;;;18.21;46.08;99836.56;5127458;28;20280;-56
2022/12/29 02:05:50;;;;;;;;;;;;;;;18.21;46.13;99844.84;5133019;28;19934;-56
2022/12/29 02:08:15;;;;;;;;;;;;;;;18.21;46.02;99848.41;5133167;28;19961;-56
2022/12/29 02:10:41;;;;;;;;;;;;;;;18.20;45.89;99852.28;5133122;28;19927;-56
2022/12/29 02:13:07;;;;;;;;;;;;;;;18.21;45.86;99847.59;5115448;28;20391;-58
2022/12/29 02:15:42;;;;;;;;;;;;;;;18.21;45.89;99842.06;5171361;27;19926;-58
2022/12/29 02:18:13;;;;;;;;;;;;;;;18.20;46.12;99835.75;5174685;27;19962;-59
2022/12/29 02:20:59;;;;;;;;;;;;;;;18.21;46.06;99837.38;5174520;27;20366;-58
2022/12/29 02:23:30;;;;;;;;;;;;;;;18.21;45.85;99834.63;5147643;27;20054;-58
2022/12/29 02:26:14;;;;;;;;;;;;;;;18.21;45.92;99828.31;5114269;28;19946;-58
2022/12/29 02:28:52;;;;;;;;;;;;;;;18.20;45.99;99830.25;5123154;27;19958;-58
2022/12/29 02:31:28;;;;;;;;;;;;;;;18.22;45.97;99818.91;5153616;27;19934;-58
2022/12/29 02:34:00;;;;;;;;;;;;;;;18.20;45.88;99808.19;5140149;27;19927;-58
2022/12/29 02:36:32;;;;;;;;;;;;;;;18.21;45.99;99820.84;5132747;28;19959;-58
2022/12/29 02:39:07;;;;;;;;;;;;;;;18.21;45.92;99814.53;5132431;28;20208;-58
2022/12/29 02:41:52;;;;;;;;;;;;;;;18.21;45.94;99818.09;5114243;28;20517;-58
2022/12/29 02:44:25;;;;;;;;;;;;;;;18.22;45.95;99816.16;5116513;28;19976;-58
2022/12/29 02:46:52;;;;;;;;;;;;;;;18.21;45.83;99815.34;5132347;28;19931;-59
2022/12/29 02:49:27;;;;;;;;;;;;;;;18.22;46.01;99807.88;5132344;28;20280;-59
2022/12/29 02:51:55;;;;;;;;;;;;;;;18.21;46.18;99804.31;5132238;28;20416;-58
2022/12/29 02:54:52;;;;;;;;;;;;;;;18.21;45.91;99795.22;5131602;27;20378;-59
2022/12/29 02:59:58;;;;;;;;;;;;;;;18.21;46.01;99795.22;5189803;27;20063;-56
2022/12/29 03:02:43;;;;;;;;;;;;;;;18.21;46.18;99784.22;5166795;27;19937;-56
2022/12/29 03:05:29;;;;;;;;;;;;;;;18.21;45.94;99786.97;5127298;27;20347;-56
2022/12/29 03:08:00;;;;;;;;;;;;;;;18.21;45.95;99774.00;5132933;27;20000;-56
2022/12/29 03:10:44;;;;;;;;;;;;;;;18.21;46.02;99779.50;5147551;27;19974;-56
2022/12/29 03:16:05;;;;;;;;;;;;;;;18.21;45.96;99778.69;5111740;28;20372;-56
2022/12/29 03:18:34;;;;;;;;;;;;;;;18.21;46.15;99771.25;5127098;28;20388;-56
2022/12/29 03:21:01;;;;;;;;;;;;;;;18.21;46.09;99773.19;5125835;28;19962;-56
2022/12/29 03:23:27;;;;;;;;;;;;;;;18.21;45.93;99768.50;5135198;27;20383;-56
2022/12/29 03:25:53;;;;;;;;;;;;;;;18.21;45.97;99770.44;5146986;27;20008;-56
2022/12/29 03:28:21;;;;;;;;;;;;;;;18.21;46.12;99768.50;5147490;27;20359;-56
2022/12/29 03:30:47;;;;;;;;;;;;;;;18.20;45.99;99761.34;5147379;27;20419;-56
2022/12/29 03:33:14;;;;;;;;;;;;;;;18.21;46.12;99757.47;5147696;27;19935;-56
2022/12/29 03:35:40;;;;;;;;;;;;;;;18.21;46.05;99762.97;5147503;27;19982;-56
2022/12/29 03:38:08;;;;;;;;;;;;;;;18.21;46.09;99754.72;5147617;27;19924;-56
2022/12/29 03:40:34;;;;;;;;;;;;;;;18.19;45.93;99751.44;5147554;27;19927;-56
2022/12/29 03:42:59;;;;;;;;;;;;;;;18.21;46.05;99756.66;5147456;27;19978;-56
2022/12/29 03:45:25;;;;;;;;;;;;;;;18.21;46.12;99749.19;5147116;27;19924;-56
2022/12/29 03:47:51;;;;;;;;;;;;;;;18.21;46.00;99748.38;5147396;27;20005;-56
2022/12/29 03:50:17;;;;;;;;;;;;;;;18.20;46.09;99742.06;5147414;27;19934;-56
2022/12/29 03:52:43;;;;;;;;;;;;;;;18.21;46.15;99740.94;5128380;27;19935;-56
2022/12/29 03:55:09;;;;;;;;;;;;;;;18.21;45.87;99734.59;5146727;27;20286;-56
2022/12/29 03:57:34;;;;;;;;;;;;;;;18.21;46.00;99748.38;5147175;27;20282;-56
2022/12/29 04:00:00;;;;;;;;;;;;;;;18.21;46.21;99716.13;5146471;27;19931;-56
2022/12/29 04:02:25;;;;;;;;;;;;;;;18.20;46.14;99713.69;5128199;27;19931;-56
2022/12/29 04:04:51;;;;;;;;;;;;;;;18.20;46.22;99721.97;5139847;27;19928;-56
2022/12/29 04:07:17;;;;;;;;;;;;;;;18.20;46.01;99720.00;5147305;27;19927;-56
2022/12/29 04:09:43;;;;;;;;;;;;;;;18.21;46.04;99729.91;5142706;27;19923;-56
2022/12/29 04:12:08;;;;;;;;;;;;;;;18.21;46.20;99734.59;5133513;27;20330;-56
2022/12/29 04:14:34;;;;;;;;;;;;;;;18.22;46.17;99730.72;5142433;27;19923;-56
2022/12/29 04:16:59;;;;;;;;;;;;;;;18.21;45.99;99749.19;5153940;27;19927;-56
2022/12/29 04:19:25;;;;;;;;;;;;;;;18.22;45.97;99747.25;5153809;27;19931;-56
2022/12/29 04:21:51;;;;;;;;;;;;;;;18.22;46.13;99753.63;5153692;27;20046;-58
2022/12/29 04:24:16;;;;;;;;;;;;;;;18.22;46.05;99752.78;5137900;27;19930;-58
2022/12/29 04:26:44;;;;;;;;;;;;;;;18.21;46.04;99748.38;5121141;28;20303;-58
2022/12/29 04:29:09;;;;;;;;;;;;;;;18.21;45.99;99748.38;5132452;27;19923;-58
2022/12/29 04:31:35;;;;;;;;;;;;;;;18.22;46.18;99741.75;5133023;28;19924;-58
2022/12/29 04:34:00;;;;;;;;;;;;;;;18.21;46.04;99737.38;5132694;28;19934;-58
2022/12/29 04:36:26;;;;;;;;;;;;;;;18.22;46.04;99733.47;5132661;28;20352;-58
2022/12/29 04:38:55;;;;;;;;;;;;;;;18.20;46.22;99736.56;5132815;28;20043;-59
2022/12/29 04:41:21;;;;;;;;;;;;;;;18.21;46.11;99742.88;5132813;27;19949;-58
2022/12/29 04:43:46;;;;;;;;;;;;;;;18.21;46.11;99740.13;5132272;27;19927;-58
2022/12/29 04:46:12;;;;;;;;;;;;;;;18.20;46.18;99753.09;5132680;27;19927;-58
2022/12/29 04:48:37;;;;;;;;;;;;;;;18.21;46.05;99746.44;5132549;28;19923;-58
2022/12/29 04:51:03;;;;;;;;;;;;;;;18.22;46.22;99761.03;5132455;28;19923;-58
2022/12/29 04:53:29;;;;;;;;;;;;;;;18.22;46.10;99752.78;5132191;28;19934;-58
2022/12/29 04:55:55;;;;;;;;;;;;;;;18.21;46.06;99754.72;5132208;28;19923;-58
2022/12/29 04:58:21;;;;;;;;;;;;;;;18.21;46.26;99754.72;5132240;28;19937;-58
2022/12/29 05:00:48;;;;;;;;;;;;;;;18.22;46.30;99756.38;5132267;28;19927;-58
2022/12/29 05:03:14;;;;;;;;;;;;;;;18.22;46.16;99752.78;5132237;27;19931;-58
2022/12/29 05:05:39;;;;;;;;;;;;;;;18.20;46.27;99755.84;5132139;28;19930;-58
2022/12/29 05:08:05;;;;;;;;;;;;;;;18.21;46.36;99765.72;5132456;28;19927;-59
2022/12/29 05:10:30;;;;;;;;;;;;;;;18.21;46.06;99762.97;5132199;28;19965;-58
2022/12/29 05:12:57;;;;;;;;;;;;;;;18.21;46.12;99774.00;5130744;27;19986;-58
2022/12/29 05:15:22;;;;;;;;;;;;;;;18.21;46.05;99773.19;5131634;27;19934;-58
2022/12/29 05:17:48;;;;;;;;;;;;;;;18.22;46.02;99774.81;5132105;28;19924;-58
2022/12/29 05:20:14;;;;;;;;;;;;;;;18.22;46.11;99780.31;5132369;28;19927;-59
2022/12/29 05:22:39;;;;;;;;;;;;;;;18.22;46.22;99772.06;5130878;27;19948;-58
2022/12/29 05:25:05;;;;;;;;;;;;;;;18.22;45.88;99766.53;5131422;28;19934;-58
2022/12/29 05:27:31;;;;;;;;;;;;;;;18.22;46.05;99761.88;5131893;28;19984;-58
2022/12/29 05:29:57;;;;;;;;;;;;;;;18.22;46.10;99770.16;5127584;28;19956;-58
2022/12/29 05:32:23;;;;;;;;;;;;;;;18.22;46.14;99772.06;5132111;27;19923;-58
2022/12/29 05:34:48;;;;;;;;;;;;;;;18.22;46.20;99766.53;5131655;27;20371;-58
2022/12/29 05:37:14;;;;;;;;;;;;;;;18.22;46.09;99772.91;5131938;28;19923;-58
2022/12/29 05:39:39;;;;;;;;;;;;;;;18.21;46.06;99762.16;5131928;28;20375;-58
2022/12/29 05:42:05;;;;;;;;;;;;;;;18.21;46.27;99760.22;5131855;28;20032;-58
2022/12/29 05:44:30;;;;;;;;;;;;;;;18.21;46.18;99768.50;5130966;28;20294;-58
2022/12/29 05:46:56;;;;;;;;;;;;;;;18.22;46.08;99777.56;5131542;28;19931;-58
2022/12/29 05:49:22;;;;;;;;;;;;;;;18.22;46.09;99766.53;5131932;28;19930;-58
2022/12/29 05:51:47;;;;;;;;;;;;;;;18.22;46.25;99785.84;5131531;28;19935;-58
2022/12/29 05:54:13;;;;;;;;;;;;;;;18.21;46.15;99773.19;5131027;28;19923;-58
2022/12/29 05:56:38;;;;;;;;;;;;;;;18.21;46.18;99781.44;5113103;28;19930;-59
2022/12/29 05:59:04;;;;;;;;;;;;;;;18.21;46.28;99793.28;5130986;28;19927;-58
2022/12/29 06:01:30;;;;;;;;;;;;;;;18.21;46.27;99801.56;5131620;28;19938;-59
2022/12/29 06:03:55;;;;;;;;;;;;;;;18.22;46.14;99807.88;5131019;27;19928;-58
2022/12/29 06:06:21;;;;;;;;;;;;;;;18.22;46.30;99802.38;5131438;28;19935;-58
2022/12/29 06:08:47;;;;;;;;;;;;;;;18.22;46.10;99792.19;5130904;27;19934;-58
2022/12/29 06:11:12;;;;;;;;;;;;;;;18.22;46.17;99805.13;5131217;28;20436;-58
2022/12/29 06:13:38;;;;;;;;;;;;;;;18.22;46.12;99813.41;5124458;27;19932;-58
2022/12/29 06:16:03;;;;;;;;;;;;;;;18.22;46.08;99802.38;5130276;28;19924;-58
2022/12/29 06:18:29;;;;;;;;;;;;;;;18.22;46.10;99808.72;5112703;28;19929;-58
2022/12/29 06:20:59;;;;;;;;;;;;;;;18.23;46.09;99806.78;5131233;28;19976;-58
2022/12/29 06:23:24;;;;;;;;;;;;;;;18.22;46.09;99810.63;5112263;28;19927;-58
2022/12/29 06:25:50;;;;;;;;;;;;;;;18.22;46.26;99822.50;5130907;28;20044;-59
2022/12/29 06:28:17;;;;;;;;;;;;;;;18.22;46.19;99833.53;5130583;28;19923;-58
2022/12/29 06:30:43;;;;;;;;;;;;;;;18.23;46.20;99840.66;5130261;28;20486;-58
2022/12/29 06:33:09;;;;;;;;;;;;;;;18.23;46.11;99845.38;5130647;27;20430;-58
2022/12/29 06:35:34;;;;;;;;;;;;;;;18.22;46.22;99850.06;5130813;28;19923;-58
2022/12/29 06:38:00;;;;;;;;;;;;;;;18.21;46.03;99853.91;5130924;27;19934;-58
2022/12/29 06:40:25;;;;;;;;;;;;;;;18.22;46.16;99849.22;5130988;27;19935;-58
2022/12/29 06:42:51;;;;;;;;;;;;;;;18.23;45.93;99861.91;5130941;28;19976;-58
2022/12/29 06:45:17;;;;;;;;;;;;;;;18.22;46.17;99849.22;5130541;28;19931;-58
2022/12/29 06:47:42;;;;;;;;;;;;;;;18.22;46.16;99855.56;5130698;28;19931;-58
2022/12/29 06:50:08;;;;;;;;;;;;;;;18.22;46.42;99841.81;5130369;28;19923;-58
2022/12/29 06:52:33;;;;;;;;;;;;;;;18.22;46.20;99846.47;5112195;28;19930;-58
2022/12/29 06:54:59;;;;;;;;;;;;;;;18.23;46.27;99853.63;5130062;28;19927;-59
2022/12/29 06:57:26;;;;;;;;;;;;;;;18.21;46.24;99856.66;5130671;28;19923;-58
2022/12/29 06:59:52;;;;;;;;;;;;;;;18.22;46.24;99855.56;5130028;28;19993;-58
2022/12/29 07:02:19;;;;;;;;;;;;;;;18.22;46.09;99852.81;5112192;27;20371;-58
2022/12/29 07:04:45;;;;;;;;;;;;;;;18.22;46.26;99865.75;5129956;28;19927;-58
2022/12/29 07:07:10;;;;;;;;;;;;;;;18.22;46.23;99865.75;5130561;28;20316;-58
2022/12/29 07:09:36;;;;;;;;;;;;;;;18.23;46.17;99872.94;5130188;27;20166;-59
2022/12/29 07:12:01;;;;;;;;;;;;;;;18.22;46.24;99880.38;5127448;28;20290;-58
2022/12/29 07:14:27;;;;;;;;;;;;;;;18.22;46.12;99872.13;5130617;27;19924;-58
2022/12/29 07:16:52;;;;;;;;;;;;;;;18.22;46.14;99877.63;5130205;28;19923;-58
2022/12/29 07:19:18;;;;;;;;;;;;;;;18.22;46.17;99883.13;5130373;28;19923;-58
2022/12/29 07:21:44;;;;;;;;;;;;;;;18.22;46.20;99869.34;5130409;28;20014;-58
2022/12/29 07:24:09;;;;;;;;;;;;;;;18.22;46.13;99874.03;5129266;28;20291;-58
2022/12/29 07:26:36;;;;;;;;;;;;;;;18.21;46.22;99880.66;5130359;28;19924;-58
2022/12/29 07:29:02;;;;;;;;;;;;;;;18.22;46.36;99874.88;5129328;28;19948;-58
2022/12/29 07:31:28;;;;;;;;;;;;;;;18.23;46.28;99881.19;5130055;28;19939;-58
2022/12/29 07:33:53;;;;;;;;;;;;;;;18.22;46.25;99891.41;5129331;28;19934;-58
2022/12/29 07:36:19;;;;;;;;;;;;;;;18.22;46.42;99894.16;5129684;28;20287;-58
2022/12/29 07:38:45;;;;;;;;;;;;;;;18.22;46.12;99901.59;5130074;28;20016;-59
2022/12/29 07:41:10;;;;;;;;;;;;;;;18.23;46.44;99906.00;5130198;28;19973;-59
2022/12/29 07:43:36;;;;;;;;;;;;;;;18.22;46.33;99907.94;5111475;28;20276;-58
2022/12/29 07:46:01;;;;;;;;;;;;;;;18.22;46.27;99905.19;5132425;27;19923;-58
2022/12/29 07:48:27;;;;;;;;;;;;;;;18.23;46.30;99914.25;5133673;28;19934;-58
2022/12/29 07:50:53;;;;;;;;;;;;;;;18.23;46.24;99925.28;5133580;28;19927;-58
2022/12/29 07:53:18;;;;;;;;;;;;;;;18.24;44.89;99913.97;5114880;28;19924;-58
2022/12/29 07:55:44;;;;;;;;;;;;;;;18.24;45.42;99929.69;5133198;28;19975;-58
2022/12/29 07:58:09;;;;;;;;;;;;;;;18.24;45.23;99929.69;5132741;28;19928;-58
2022/12/29 08:00:35;;;;;;;;;;;;;;;18.22;45.38;99929.13;5133144;28;20340;-58
2022/12/29 08:03:00;;;;;;;;;;;;;;;18.20;45.69;99918.44;5133132;27;19927;-58
2022/12/29 08:05:26;;;;;;;;;;;;;;;18.18;45.67;99920.69;5133048;27;20317;-58
2022/12/29 08:07:52;;;;;;;;;;;;;;;18.18;45.90;99925.38;5133382;28;19935;-58
2022/12/29 08:10:17;;;;;;;;;;;;;;;18.17;45.74;99927.28;5133533;28;20411;-58
2022/12/29 08:12:43;;;;;;;;;;;;;;;18.19;45.50;99927.00;5119717;28;19935;-58
2022/12/29 08:15:09;;;;;;;;;;;;;;;18.16;44.81;99933.91;5132726;28;19924;-58
2022/12/29 08:17:35;;;;;;;;;;;;;;;18.15;44.47;99931.47;5114640;28;19935;-58
2022/12/29 08:20:00;;;;;;;;;;;;;;;18.12;44.36;99932.88;5132985;28;19923;-58
2022/12/29 08:22:26;;;;;;;;;;;;;;;18.10;44.10;99946.13;5114631;28;20391;-58
2022/12/29 08:24:51;;;;;;;;;;;;;;;18.10;44.24;99948.09;5132297;28;20050;-58
2022/12/29 08:27:17;;;;;;;;;;;;;;;18.08;44.23;99953.88;5132949;28;19927;-58
2022/12/29 08:29:46;;;;;;;;;;;;;;;18.11;44.54;99967.06;5131850;28;19927;-58
2022/12/29 08:32:12;;;;;;;;;;;;;;;18.11;45.06;99969.81;5132940;28;19923;-58
2022/12/29 08:34:37;;;;;;;;;;;;;;;18.12;45.31;99970.63;5131481;28;20295;-58
2022/12/29 08:37:03;;;;;;;;;;;;;;;18.11;45.45;99969.81;5132849;27;19923;-58
2022/12/29 08:39:28;;;;;;;;;;;;;;;18.13;45.43;99983.28;5132788;27;20302;-59
2022/12/29 08:41:54;;;;;;;;;;;;;;;18.18;45.52;99970.28;5131233;28;19923;-58
2022/12/29 08:44:20;;;;;;;;;;;;;;;18.21;45.49;99968.84;5118961;28;19927;-58
2022/12/29 08:46:45;;;;;;;;;;;;;;;18.20;45.42;99967.22;5114260;27;19928;-58
2022/12/29 08:49:11;;;;;;;;;;;;;;;18.19;45.49;99966.41;5132338;28;20347;-56
2022/12/29 08:51:36;;;;;;;;;;;;;;;18.20;45.60;99975.47;5132568;28;19923;-56
2022/12/29 08:54:02;;;;;;;;;;;;;;;18.21;45.62;99971.59;5132002;28;19923;-56
2022/12/29 08:56:28;;;;;;;;;;;;;;;18.20;45.65;99973.53;5114102;28;19947;-56
2022/12/29 08:58:53;;;;;;;;;;;;;;;18.21;45.67;99977.94;5113089;28;20410;-56
2022/12/29 09:01:19;;;;;;;;;;;;;;;18.22;45.78;99976.00;5113511;28;20458;-56
2022/12/29 09:03:45;;;;;;;;;;;;;;;18.22;45.81;99970.47;5113506;28;19927;-57
2022/12/29 09:06:30;;;;;;;;;;;;;;;18.24;45.84;99982.03;5102976;28;19934;-56
2022/12/29 09:09:03;;;;;;;;;;;;;;;18.25;45.65;99980.91;5132527;28;19923;-56
2022/12/29 09:11:28;;;;;;;;;;;;;;;18.26;45.74;99990.81;5125470;28;19923;-55
2022/12/29 09:13:54;;;;;;;;;;;;;;;18.28;45.54;99994.09;5127563;27;19942;-56
2022/12/29 09:16:20;;;;;;;;;;;;;;;18.27;45.78;99990.53;5113906;28;19956;-56
2022/12/29 09:18:46;;;;;;;;;;;;;;;18.28;45.77;99988.59;5113748;28;19927;-56
2022/12/29 09:21:12;;;;;;;;;;;;;;;18.29;45.80;100001.25;5132135;28;19975;-56
2022/12/29 09:23:38;;;;;;;;;;;;;;;18.31;45.71;99999.03;5131528;28;20249;-56
2022/12/29 09:26:03;;;;;;;;;;;;;;;18.30;45.85;100009.22;5132015;28;19924;-57
2022/12/29 09:28:29;;;;;;;;;;;;;;;18.31;45.67;99999.03;5113208;28;19923;-56
2022/12/29 09:30:54;;;;;;;;;;;;;;;18.32;45.68;100021.91;5131833;28;19952;-56
2022/12/29 09:33:20;;;;;;;;;;;;;;;18.32;45.70;100008.94;5113346;28;19927;-57
2022/12/29 09:35:50;;;;;;;;;;;;;;;18.33;45.84;100015.25;5130987;28;19923;-56
2022/12/29 09:38:15;;;;;;;;;;;;;;;18.33;45.78;100007.00;5130388;28;19972;-56
2022/12/29 09:40:41;;;;;;;;;;;;;;;18.33;45.65;100010.56;5131944;27;19932;-56
2022/12/29 09:43:17;;;;;;;;;;;;;;;18.35;45.65;100007.50;5126541;27;19923;-56
2022/12/29 09:45:43;;;;;;;;;;;;;;;18.36;45.62;100009.97;5131241;27;19927;-57
2022/12/29 09:48:18;;;;;;;;;;;;;;;18.35;45.74;100008.34;5131681;28;19973;-57
2022/12/29 09:50:44;;;;;;;;;;;;;;;18.36;45.80;100031.22;5113125;28;20283;-56
2022/12/29 09:53:14;;;;;;;;;;;;;;;18.37;45.61;100016.31;5131224;28;19927;-56
2022/12/29 09:55:42;;;;;;;;;;;;;;;18.36;45.85;100014.69;5131439;28;20428;-56
2022/12/29 09:58:12;;;;;;;;;;;;;;;18.36;45.67;100017.44;5131483;28;20417;-57
2022/12/29 10:00:43;;;;;;;;;;;;;;;18.36;45.81;100022.94;5131197;28;19946;-56
2022/12/29 10:03:13;;;;;;;;;;;;;;;18.36;45.80;100015.50;5131386;27;20359;-56
2022/12/29 10:05:43;;;;;;;;;;;;;;;18.36;45.65;100011.94;5112794;28;19923;-56
2022/12/29 10:10:50;;;;;;;;;;;;;;;18.35;45.75;100005.59;5189155;27;19925;-56
2022/12/29 10:13:21;;;;;;;;;;;;;;;18.35;45.98;100008.34;5154641;27;19927;-56
2022/12/29 10:16:07;;;;;;;;;;;;;;;18.35;45.86;100013.03;5149896;27;19923;-56
2022/12/29 10:18:52;;;;;;;;;;;;;;;18.34;45.91;100026.00;5153454;27;20283;-56
2022/12/29 10:21:22;;;;;;;;;;;;;;;18.35;45.79;100035.06;5153273;27;20328;-56
2022/12/29 10:23:49;;;;;;;;;;;;;;;18.34;45.79;100033.44;5160757;27;19926;-56
2022/12/29 10:26:16;;;;;;;;;;;;;;;18.34;45.93;100019.66;5170801;27;19927;-56
2022/12/29 10:28:43;;;;;;;;;;;;;;;18.34;45.92;100008.63;5189351;27;19973;-56
2022/12/29 10:31:13;;;;;;;;;;;;;;;18.34;45.93;100017.72;5170790;27;19958;-55
2022/12/29 10:33:40;;;;;;;;;;;;;;;18.34;45.78;100033.44;5170504;27;19969;-56
2022/12/29 10:36:10;;;;;;;;;;;;;;;18.33;46.00;100029.88;5189454;27;19961;-56
2022/12/29 10:38:38;;;;;;;;;;;;;;;18.33;45.75;100035.38;5189070;27;19933;-56
2022/12/29 10:41:21;;;;;;;;;;;;;;;18.34;45.82;100037.00;5189628;27;19930;-56
2022/12/29 10:43:47;;;;;;;;;;;;;;;18.34;45.95;100036.19;5177604;27;20286;-56
2022/12/29 10:46:14;;;;;;;;;;;;;;;18.34;45.60;100030.69;5149730;27;19927;-56
2022/12/29 10:48:40;;;;;;;;;;;;;;;18.34;45.77;100036.19;5166912;27;20319;-56
2022/12/29 10:51:05;;;;;;;;;;;;;;;18.33;45.95;100046.41;5168461;27;19964;-56
2022/12/29 10:53:35;;;;;;;;;;;;;;;18.34;45.83;100039.75;5168032;27;19934;-56
2022/12/29 10:56:00;;;;;;;;;;;;;;;18.34;45.91;100039.75;5167982;27;19934;-56
2022/12/29 10:58:26;;;;;;;;;;;;;;;18.34;45.71;100061.00;5175115;27;19927;-56
2022/12/29 11:00:53;;;;;;;;;;;;;;;18.34;45.84;100041.72;5189071;27;20277;-56
2022/12/29 11:03:37;;;;;;;;;;;;;;;18.34;45.69;100069.28;5152000;27;20389;-56
2022/12/29 11:06:05;;;;;;;;;;;;;;;18.34;45.74;100064.56;5147288;27;19923;-56
2022/12/29 11:08:33;;;;;;;;;;;;;;;18.34;45.75;100064.56;5146716;27;20387;-56
2022/12/29 11:11:00;;;;;;;;;;;;;;;18.34;45.66;100069.28;5146919;27;20322;-56
2022/12/29 11:13:28;;;;;;;;;;;;;;;18.34;45.88;100064.56;5154673;27;19958;-56
2022/12/29 11:16:03;;;;;;;;;;;;;;;18.34;45.89;100074.78;5150116;27;19934;-56
2022/12/29 11:18:33;;;;;;;;;;;;;;;18.34;45.82;100080.28;5167925;27;19927;-56
2022/12/29 11:21:00;;;;;;;;;;;;;;;18.34;45.90;100080.28;5142393;27;20011;-56
2022/12/29 11:23:29;;;;;;;;;;;;;;;18.34;45.69;100083.06;5135098;27;20174;-56
2022/12/29 11:28:46;;;;;;;;;;;;;;;18.34;45.75;100094.91;5189644;27;19944;-56
2022/12/29 11:31:16;;;;;;;;;;;;;;;18.34;45.75;100094.91;5190110;27;19922;-56
2022/12/29 11:33:41;;;;;;;;;;;;;;;18.33;45.72;100112.56;5179558;27;20014;-56
2022/12/29 11:36:16;;;;;;;;;;;;;;;18.34;45.92;100094.06;5168877;27;20286;-56
2022/12/29 11:38:46;;;;;;;;;;;;;;;18.33;45.69;100112.56;5152587;27;19923;-56
2022/12/29 11:41:12;;;;;;;;;;;;;;;18.33;45.60;100093.25;5168764;27;19927;-56
2022/12/29 11:43:38;;;;;;;;;;;;;;;18.34;45.87;100099.59;5160960;27;19923;-56
2022/12/29 11:46:03;;;;;;;;;;;;;;;18.34;45.75;100105.09;5150150;27;19923;-56
2022/12/29 11:48:31;;;;;;;;;;;;;;;18.34;45.81;100111.44;5168447;27;20063;-56
2022/12/29 11:50:59;;;;;;;;;;;;;;;18.33;45.66;100104.28;5149373;27;19938;-56
2022/12/29 11:53:26;;;;;;;;;;;;;;;18.34;45.78;100113.38;5149278;27;19968;-56
2022/12/29 11:55:56;;;;;;;;;;;;;;;18.34;45.63;100094.91;5149777;27;19923;-56
2022/12/29 11:58:28;;;;;;;;;;;;;;;18.34;45.79;100116.13;5149600;27;20396;-56
2022/12/29 12:00:53;;;;;;;;;;;;;;;18.34;45.81;100118.88;5149290;27;20302;-56
2022/12/29 12:03:19;;;;;;;;;;;;;;;18.34;45.58;100125.22;5156746;27;20363;-56
2022/12/29 12:05:50;;;;;;;;;;;;;;;18.34;45.81;100122.47;5147356;27;19934;-56
2022/12/29 12:08:19;;;;;;;;;;;;;;;18.34;45.83;100116.13;5147477;27;19988;-56
2022/12/29 12:10:49;;;;;;;;;;;;;;;18.33;45.84;100115.31;5147504;27;19938;-56
2022/12/29 12:13:19;;;;;;;;;;;;;;;18.34;45.60;100118.88;5128915;27;20012;-56
2022/12/29 12:15:47;;;;;;;;;;;;;;;18.34;45.55;100127.16;5128338;27;19923;-56
2022/12/29 12:18:28;;;;;;;;;;;;;;;18.33;45.70;100122.78;5147540;27;20005;-55
2022/12/29 12:20:54;;;;;;;;;;;;;;;18.34;45.59;100130.72;5147373;27;19923;-56
2022/12/29 12:23:30;;;;;;;;;;;;;;;18.33;45.72;100134.59;5146601;27;19944;-56
2022/12/29 12:25:57;;;;;;;;;;;;;;;18.33;45.77;100129.09;5147141;27;19928;-56
2022/12/29 12:28:42;;;;;;;;;;;;;;;18.33;45.87;100126.34;5146905;27;19931;-56
2022/12/29 12:31:15;;;;;;;;;;;;;;;18.33;45.92;100137.38;5131811;27;19927;-56
2022/12/29 12:33:41;;;;;;;;;;;;;;;18.33;45.61;100133.78;5146842;27;20350;-56
2022/12/29 12:36:26;;;;;;;;;;;;;;;18.33;45.60;100140.13;5147290;27;19924;-56
2022/12/29 12:38:54;;;;;;;;;;;;;;;18.33;45.83;100145.63;5140611;27;19968;-56
2022/12/29 12:41:26;;;;;;;;;;;;;;;18.33;45.84;100140.13;5132646;28;19924;-56
2022/12/29 12:43:55;;;;;;;;;;;;;;;18.33;45.60;100151.16;5132618;27;20315;-56
2022/12/29 12:46:28;;;;;;;;;;;;;;;18.32;45.88;100148.69;5133127;28;19928;-56
2022/12/29 12:49:14;;;;;;;;;;;;;;;18.33;45.60;100133.78;5132658;28;19923;-56
2022/12/29 12:51:43;;;;;;;;;;;;;;;18.33;45.59;100148.41;5117516;28;19923;-56
2022/12/29 12:54:28;;;;;;;;;;;;;;;18.33;45.73;100153.91;5132680;28;19935;-56
2022/12/29 12:57:14;;;;;;;;;;;;;;;18.33;45.77;100153.91;5117282;28;19949;-56
2022/12/29 12:59:47;;;;;;;;;;;;;;;18.33;45.78;100162.19;5116971;28;19923;-56
2022/12/29 13:02:33;;;;;;;;;;;;;;;18.34;45.72;100171.25;5132908;27;20367;-56
2022/12/29 13:05:05;;;;;;;;;;;;;;;18.34;45.57;100165.75;5117074;28;19988;-56
2022/12/29 13:07:50;;;;;;;;;;;;;;;18.33;45.84;100167.69;5132726;28;20363;-56
2022/12/29 13:10:36;;;;;;;;;;;;;;;18.34;45.77;100160.25;5117363;28;19927;-55
2022/12/29 13:13:13;;;;;;;;;;;;;;;18.34;45.65;100174.00;5117265;27;19927;-56
2022/12/29 13:15:48;;;;;;;;;;;;;;;18.33;45.73;100178.72;5132347;28;19928;-56
2022/12/29 13:18:20;;;;;;;;;;;;;;;18.33;45.61;100180.66;5132539;28;20283;-56
2022/12/29 13:21:06;;;;;;;;;;;;;;;18.33;45.81;100180.66;5114230;28;19924;-56
2022/12/29 13:23:51;;;;;;;;;;;;;;;18.33;45.77;100173.19;5115881;28;20379;-56
2022/12/29 13:26:20;;;;;;;;;;;;;;;18.32;45.59;100184.53;5117027;28;19973;-56